createdAt,value
2022-11-19T00:02:02.162Z,7.50
2022-11-19T00:04:30.293Z,8.00
2022-11-19T00:06:59.071Z,7.00
2022-11-19T00:09:27.165Z,8.10
2022-11-19T00:12:13.421Z,12.30
2022-11-19T00:14:41.716Z,8.20
2022-11-19T00:17:09.702Z,9.30
2022-11-19T00:19:37.750Z,8.90
2022-11-19T00:22:05.204Z,8.20
2022-11-19T00:24:32.589Z,9.30
2022-11-19T00:26:59.817Z,7.80
2022-11-19T00:29:27.815Z,8.30
2022-11-19T00:31:55.786Z,9.90
2022-11-19T00:34:22.973Z,9.80
2022-11-19T00:36:51.480Z,8.60
2022-11-19T00:39:19.621Z,8.70
2022-11-19T00:41:47.751Z,8.70
2022-11-19T00:44:15.670Z,9.40
2022-11-19T00:46:43.586Z,8.80
2022-11-19T00:49:11.544Z,9.10
2022-11-19T00:51:39.633Z,9.80
2022-11-19T00:54:07.612Z,9.00
2022-11-19T00:56:35.591Z,9.70
2022-11-19T00:59:04.047Z,9.70
2022-11-19T05:00:45.937Z,21.10
2022-11-19T05:03:14.010Z,20.10
2022-11-19T05:05:41.978Z,20.00
2022-11-19T05:08:10.575Z,20.60
2022-11-19T05:10:38.480Z,19.30
2022-11-19T05:13:06.181Z,19.80
2022-11-19T05:15:33.957Z,19.40
2022-11-19T05:18:01.726Z,19.80
2022-11-19T05:20:29.841Z,20.20
2022-11-19T05:22:57.570Z,19.00
2022-11-19T05:25:25.438Z,21.70
2022-11-19T05:27:53.462Z,20.20
2022-11-19T05:30:21.371Z,19.40
2022-11-19T05:32:49.375Z,19.90
2022-11-19T05:35:17.143Z,20.90
2022-11-19T05:37:45.052Z,21.00
2022-11-19T05:40:13.338Z,24.90
2022-11-19T05:42:41.229Z,30.50
2022-11-19T05:45:10.091Z,31.50
2022-11-19T05:47:38.273Z,28.60
2022-11-19T05:50:06.455Z,23.80
2022-11-19T05:52:34.895Z,26.40
2022-11-19T05:55:03.059Z,42.30
2022-11-19T05:57:31.184Z,32.20
2022-11-19T05:59:59.138Z,23.40
2022-11-19T06:02:27.180Z,21.10
2022-11-19T06:04:55.990Z,25.00
2022-11-19T06:07:23.893Z,26.70
2022-11-19T06:09:51.669Z,24.30
2022-11-19T06:12:18.857Z,23.20
2022-11-19T06:14:46.261Z,24.20
2022-11-19T06:17:13.842Z,21.80
2022-11-19T06:19:41.033Z,19.50
2022-11-19T06:22:09.822Z,19.40
2022-11-19T06:24:37.797Z,21.00
2022-11-19T06:27:05.784Z,23.90
2022-11-19T06:29:33.953Z,30.20
2022-11-19T06:32:01.814Z,34.20
2022-11-19T06:34:29.563Z,34.60
2022-11-19T06:36:58.708Z,34.00
2022-11-19T06:39:26.588Z,36.50
2022-11-19T06:41:54.665Z,46.20
2022-11-19T06:44:22.700Z,34.20
2022-11-19T06:46:50.523Z,23.20
2022-11-19T06:49:20.267Z,21.90
2022-11-19T06:51:48.806Z,22.50
2022-11-19T06:54:16.682Z,22.10
2022-11-19T06:56:43.950Z,21.60
2022-11-19T06:59:11.078Z,22.00
2022-11-19T07:01:39.116Z,25.50
2022-11-19T07:04:09.964Z,32.60
2022-11-19T07:06:38.306Z,29.40
2022-11-19T07:09:06.346Z,29.70
2022-11-19T07:11:36.186Z,48.60
2022-11-19T07:14:04.259Z,95.90
2022-11-19T07:16:36.726Z,102.80
2022-11-19T07:19:07.272Z,82.20
2022-11-19T07:21:35.952Z,58.00
2022-11-19T07:24:06.216Z,38.80
2022-11-19T07:26:35.489Z,31.80
2022-11-19T07:29:06.189Z,47.30
2022-11-19T07:31:34.956Z,61.50
2022-11-19T07:34:02.482Z,40.70
2022-11-19T07:36:29.577Z,43.40
2022-11-19T07:38:58.483Z,51.70
2022-11-19T07:41:45.428Z,46.40
2022-11-19T07:44:13.539Z,57.00
2022-11-19T07:46:42.268Z,58.90
2022-11-19T07:49:09.762Z,49.10
2022-11-19T07:51:37.597Z,44.00
2022-11-19T07:54:05.666Z,39.20
2022-11-19T07:56:33.761Z,62.10
2022-11-19T07:59:02.873Z,78.00
2022-11-19T08:01:30.862Z,61.10
2022-11-19T08:03:58.874Z,59.00
2022-11-19T08:06:28.709Z,60.60
2022-11-19T08:08:57.285Z,54.40
2022-11-19T08:11:25.686Z,43.20
2022-11-19T08:13:56.314Z,40.30
2022-11-19T08:16:43.110Z,50.90
2022-11-19T08:19:13.610Z,62.00
2022-11-19T08:21:44.081Z,52.30
2022-11-19T08:24:14.176Z,40.50
2022-11-19T08:26:42.777Z,52.80
2022-11-19T08:29:15.927Z,30.20
2022-11-19T08:31:46.781Z,35.10
2022-11-19T08:34:16.740Z,26.50
2022-11-19T08:36:45.048Z,20.80
2022-11-19T08:39:12.327Z,26.10
2022-11-19T08:41:58.109Z,25.20
2022-11-19T08:44:26.568Z,25.20
2022-11-19T08:46:53.928Z,24.10
2022-11-19T08:49:21.723Z,21.30
2022-11-19T08:51:48.882Z,24.80
2022-11-19T08:54:19.893Z,30.50
2022-11-19T08:56:47.493Z,25.70
2022-11-19T08:59:15.000Z,33.30
2022-11-19T09:01:42.342Z,40.90
2022-11-19T09:04:10.412Z,35.50
2022-11-19T09:06:37.737Z,37.30
2022-11-19T09:09:05.450Z,29.00
2022-11-19T09:11:34.084Z,25.00
2022-11-19T09:14:03.760Z,22.30
2022-11-19T09:16:31.100Z,36.90
2022-11-19T09:18:59.004Z,50.60
2022-11-19T09:21:28.831Z,26.70
2022-11-19T09:23:56.075Z,31.80
2022-11-19T09:26:23.646Z,25.50
2022-11-19T09:28:51.422Z,31.80
2022-11-19T09:31:20.624Z,26.60
2022-11-19T09:33:50.968Z,41.60
2022-11-19T09:36:20.850Z,37.50
2022-11-19T09:38:49.426Z,25.90
2022-11-19T09:41:31.246Z,26.30
2022-11-19T09:44:17.737Z,31.80
2022-11-19T09:47:24.187Z,20.60
2022-11-19T09:50:19.581Z,38.00
2022-11-19T09:52:58.611Z,44.20
2022-11-19T09:55:47.744Z,51.00
2022-11-19T09:58:43.101Z,30.00
2022-11-19T10:01:17.184Z,34.00
2022-11-19T10:03:55.159Z,29.30
2022-11-19T10:06:30.359Z,31.00
2022-11-19T10:09:33.095Z,31.20
2022-11-19T10:12:15.443Z,35.90
2022-11-19T10:15:05.005Z,20.10
2022-11-19T10:18:29.918Z,22.30
2022-11-19T10:21:06.151Z,21.90
2022-11-19T10:23:36.631Z,30.70
2022-11-19T10:26:11.822Z,27.80
2022-11-19T10:28:44.763Z,18.40
2022-11-19T10:31:49.069Z,19.70
2022-11-19T10:34:33.060Z,29.50
2022-11-19T10:37:16.139Z,27.00
2022-11-19T10:40:04.111Z,29.90
2022-11-19T10:42:39.694Z,41.40
2022-11-19T10:45:19.561Z,60.60
2022-11-19T10:48:13.622Z,58.70
2022-11-19T10:50:43.042Z,38.40
2022-11-19T10:53:32.727Z,31.70
2022-11-19T10:56:07.716Z,24.30
2022-11-19T10:58:41.536Z,26.50
2022-11-19T11:01:38.115Z,24.50
2022-11-19T11:04:24.290Z,23.30
2022-11-19T11:07:04.374Z,23.40
2022-11-19T11:09:40.950Z,18.10
2022-11-19T11:12:41.262Z,21.60
2022-11-19T11:15:27.635Z,19.00
2022-11-19T11:18:11.723Z,31.30
2022-11-19T11:23:18.452Z,27.20
2022-11-19T11:26:13.849Z,24.90
2022-11-19T11:29:24.255Z,22.90
2022-11-19T11:31:52.155Z,21.60
2022-11-19T11:34:43.445Z,50.20
2022-11-19T11:37:13.739Z,73.40
2022-11-19T11:39:44.922Z,103.70
2022-11-19T11:42:19.657Z,116.30
2022-11-19T11:45:00.373Z,169.60
2022-11-19T11:47:37.445Z,59.30
2022-11-19T11:50:05.561Z,28.70
2022-11-19T11:52:54.505Z,19.50
2022-11-19T11:55:26.451Z,22.10
2022-11-19T11:57:56.511Z,19.60
2022-11-19T12:00:45.215Z,20.90
2022-11-19T12:03:15.082Z,23.10
2022-11-19T12:05:51.257Z,24.40
2022-11-19T12:08:35.630Z,22.40
2022-11-19T12:11:12.131Z,21.80
2022-11-19T12:14:06.601Z,27.10
2022-11-19T12:16:57.525Z,18.40
2022-11-19T12:19:53.330Z,17.00
2022-11-19T12:22:40.969Z,21.70
2022-11-19T12:25:12.832Z,30.50
2022-11-19T12:28:05.685Z,27.90
2022-11-19T12:31:07.810Z,31.40
2022-11-19T12:34:14.351Z,22.20
2022-11-19T12:37:33.042Z,23.70
2022-11-19T12:40:39.865Z,15.70
2022-11-19T12:43:37.471Z,23.60
2022-11-19T12:46:25.135Z,39.40
2022-11-19T12:49:12.870Z,21.80
2022-11-19T12:52:21.967Z,15.00
2022-11-19T12:55:11.583Z,20.20
2022-11-19T12:58:13.118Z,32.20
2022-11-19T13:00:57.394Z,41.40
2022-11-19T13:03:48.394Z,67.20
2022-11-19T13:06:28.636Z,37.80
2022-11-19T13:09:08.951Z,22.00
2022-11-19T13:11:51.922Z,25.60
2022-11-19T13:14:44.511Z,22.60
2022-11-19T13:17:30.735Z,28.70
2022-11-19T13:20:10.235Z,33.90
2022-11-19T13:22:50.717Z,33.60
2022-11-19T13:26:10.660Z,26.60
2022-11-19T13:28:50.747Z,19.10
2022-11-19T13:31:46.745Z,25.30
2022-11-19T13:34:17.662Z,29.50
2022-11-19T13:37:15.324Z,45.20
2022-11-19T13:39:59.178Z,53.90
2022-11-19T13:43:04.228Z,51.10
2022-11-19T13:45:44.985Z,50.40
2022-11-19T13:48:35.949Z,47.60
2022-11-19T13:51:12.098Z,32.40
2022-11-19T13:53:48.279Z,48.10
2022-11-19T13:56:18.013Z,60.60
2022-11-19T13:58:51.771Z,40.80
2022-11-19T14:04:09.689Z,22.60
2022-11-19T14:06:41.994Z,22.50
2022-11-19T14:09:37.894Z,41.10
2022-11-19T14:12:36.490Z,32.50
2022-11-19T14:15:56.484Z,40.40
2022-11-19T14:18:59.332Z,26.30
2022-11-19T14:21:46.827Z,92.10
2022-11-19T14:24:47.146Z,40.00
2022-11-19T14:27:24.732Z,24.00
2022-11-19T14:30:00.283Z,71.10
2022-11-19T14:38:42.412Z,28.20
2022-11-19T14:41:35.058Z,61.60
2022-11-19T14:44:11.016Z,78.70
2022-11-19T14:46:45.832Z,76.40
2022-11-19T14:49:41.507Z,34.40
2022-11-19T14:52:29.066Z,43.50
2022-11-19T14:55:21.537Z,50.10
2022-11-19T14:58:21.464Z,66.10
2022-11-19T15:01:06.696Z,36.40
2022-11-19T15:03:39.111Z,36.80
2022-11-19T15:06:19.096Z,26.60
2022-11-19T15:08:59.486Z,25.20
2022-11-19T15:12:00.955Z,34.90
2022-11-19T15:15:05.914Z,27.50
2022-11-19T15:17:40.786Z,42.80
2022-11-19T15:20:39.993Z,32.50
2022-11-19T15:23:33.434Z,32.20
2022-11-19T15:26:21.115Z,25.90
2022-11-19T15:29:13.883Z,23.40
2022-11-19T15:31:50.050Z,23.10
2022-11-19T15:34:56.068Z,24.70
2022-11-19T15:37:39.962Z,18.40
2022-11-19T15:40:12.248Z,17.40
2022-11-19T15:46:09.907Z,17.60
2022-11-19T15:49:22.385Z,10.50
2022-11-19T15:52:17.702Z,11.50
2022-11-19T15:54:46.529Z,11.00
2022-11-19T15:57:26.961Z,12.70
2022-11-19T16:00:01.954Z,11.00
2022-11-19T16:02:42.891Z,12.40
2022-11-19T16:05:22.512Z,11.50
2022-11-19T16:07:52.017Z,10.30
2022-11-19T16:10:30.925Z,10.60
2022-11-19T16:13:21.602Z,11.90
2022-11-19T16:16:10.443Z,11.50
2022-11-19T16:18:54.607Z,15.90
2022-11-19T16:21:36.701Z,11.80
2022-11-19T16:24:31.472Z,8.80
2022-11-19T16:27:01.772Z,13.80
2022-11-19T16:29:33.976Z,12.80
2022-11-19T16:32:03.355Z,22.00
2022-11-19T16:38:29.852Z,18.30
2022-11-19T16:41:16.724Z,16.90
2022-11-19T16:43:48.777Z,14.40
2022-11-19T16:46:20.956Z,16.70
2022-11-19T16:48:49.231Z,70.00
2022-11-19T16:51:37.944Z,59.60
2022-11-19T16:54:09.777Z,47.70
2022-11-19T16:56:46.070Z,22.00
2022-11-19T16:59:24.558Z,28.10
2022-11-19T17:02:00.552Z,29.00
2022-11-19T17:04:30.955Z,12.70
2022-11-19T17:06:59.497Z,23.10
2022-11-19T17:09:48.103Z,25.70
2022-11-19T17:12:28.019Z,21.50
2022-11-19T17:14:58.740Z,21.90
2022-11-19T17:17:39.990Z,25.60
2022-11-19T17:20:28.280Z,22.20
2022-11-19T17:22:57.704Z,21.30
2022-11-19T17:25:26.378Z,20.50
2022-11-19T17:27:58.265Z,24.90
2022-11-19T17:30:35.584Z,21.20
2022-11-19T17:33:08.035Z,24.40
2022-11-19T17:35:41.643Z,24.30
2022-11-19T17:38:20.888Z,21.50
2022-11-19T17:40:51.710Z,21.50
2022-11-19T17:43:56.268Z,28.10
2022-11-19T17:49:00.157Z,23.60
2022-11-19T17:51:29.159Z,28.00
2022-11-19T17:53:58.810Z,18.90
2022-11-19T17:56:28.905Z,23.40
2022-11-19T17:59:02.344Z,20.00
2022-11-19T18:01:31.686Z,17.10
2022-11-19T18:04:00.507Z,22.90
2022-11-19T18:06:29.482Z,20.30
2022-11-19T18:08:57.709Z,16.40
2022-11-19T18:11:27.224Z,14.70
2022-11-19T18:13:58.054Z,17.30
2022-11-19T18:16:28.596Z,18.00
2022-11-19T18:18:56.989Z,15.90
2022-11-19T18:21:25.422Z,20.40
2022-11-19T18:23:54.395Z,18.70
2022-11-19T18:26:23.724Z,15.40
2022-11-19T18:28:52.434Z,22.20
2022-11-19T18:31:26.751Z,57.70
2022-11-19T18:33:56.799Z,23.80
2022-11-19T18:36:26.027Z,37.50
2022-11-19T18:38:56.131Z,42.10
2022-11-19T18:41:24.732Z,58.00
2022-11-19T18:44:12.425Z,183.10
2022-11-19T18:46:41.027Z,55.00
2022-11-19T18:49:09.121Z,104.90
2022-11-19T18:51:38.985Z,85.90
2022-11-19T18:54:08.288Z,41.70
2022-11-19T18:56:36.841Z,122.30
2022-11-19T18:59:05.259Z,108.90
2022-11-19T19:01:36.994Z,56.50
2022-11-19T19:04:09.174Z,100.60
2022-11-19T19:06:44.771Z,125.90
2022-11-19T19:09:21.987Z,66.30
2022-11-19T19:12:14.095Z,38.10
2022-11-19T19:14:44.448Z,35.90
2022-11-19T19:17:16.892Z,23.70
2022-11-19T19:19:45.813Z,35.90
2022-11-19T19:23:22.856Z,33.50
2022-11-19T19:25:51.354Z,52.40
2022-11-19T19:28:20.194Z,27.40
2022-11-19T19:30:57.255Z,38.90
2022-11-19T19:33:26.160Z,39.20
2022-11-19T19:35:54.639Z,52.50
2022-11-19T19:38:22.965Z,25.10
2022-11-19T19:40:50.491Z,101.40
2022-11-19T19:43:18.764Z,28.50
2022-11-19T19:45:46.846Z,36.10
2022-11-19T19:48:18.654Z,33.60
2022-11-19T19:50:52.296Z,31.30
2022-11-19T19:53:22.909Z,24.10
2022-11-19T19:56:11.339Z,28.90
2022-11-19T19:58:39.801Z,39.70
2022-11-19T20:01:09.649Z,32.00
2022-11-19T20:03:38.048Z,38.90
2022-11-19T20:06:07.594Z,45.30
2022-11-19T20:08:39.324Z,50.90
2022-11-19T20:11:09.748Z,35.80
2022-11-19T20:13:38.218Z,27.20
2022-11-19T20:16:18.136Z,30.60
2022-11-19T20:18:48.222Z,28.30
2022-11-19T20:21:20.047Z,32.40
2022-11-19T20:23:48.234Z,24.50
2022-11-19T20:26:18.956Z,24.20
2022-11-19T20:28:48.543Z,24.50
2022-11-19T20:31:21.142Z,34.70
2022-11-19T20:33:55.273Z,28.50
2022-11-19T20:36:24.757Z,36.00
2022-11-19T20:38:53.242Z,32.40
2022-11-19T20:41:41.610Z,27.60
2022-11-19T20:44:21.246Z,24.40
2022-11-19T20:47:05.282Z,27.10
2022-11-19T20:49:35.399Z,25.40
2022-11-19T20:52:03.853Z,24.60
2022-11-19T20:54:31.755Z,25.90
2022-11-19T20:57:00.205Z,26.20
2022-11-19T20:59:28.731Z,23.70
2022-11-19T21:01:57.249Z,23.40
2022-11-19T21:04:26.899Z,23.10
2022-11-19T21:06:55.181Z,23.30
2022-11-19T21:09:23.008Z,24.70
2022-11-19T21:11:50.814Z,21.60
2022-11-19T21:14:18.270Z,22.20
2022-11-19T21:16:46.151Z,21.30
2022-11-19T21:19:14.875Z,22.40
2022-11-19T21:21:43.285Z,21.80
2022-11-19T21:24:11.489Z,21.20
2022-11-19T21:26:39.235Z,21.80
2022-11-19T21:29:06.482Z,21.60
2022-11-19T21:31:39.149Z,20.70
2022-11-19T21:34:08.160Z,22.20
2022-11-19T21:36:36.627Z,23.80
2022-11-19T21:39:05.590Z,24.50
2022-11-19T21:41:33.590Z,22.00
2022-11-19T21:44:02.707Z,21.40
2022-11-19T21:46:31.692Z,21.30
2022-11-19T21:49:00.114Z,22.80
2022-11-19T21:51:28.369Z,23.10
2022-11-19T21:53:58.054Z,23.00
2022-11-19T21:56:28.137Z,22.60
2022-11-19T21:58:56.281Z,23.10
2022-11-19T22:01:25.354Z,26.40
2022-11-19T22:03:53.212Z,24.60
2022-11-19T22:06:21.694Z,26.50
2022-11-19T22:08:50.477Z,25.00
2022-11-19T22:11:31.379Z,25.80
2022-11-19T22:14:05.482Z,22.50
2022-11-19T22:19:03.795Z,22.90
2022-11-19T22:21:31.415Z,24.90
2022-11-19T22:26:44.465Z,22.20
2022-11-19T22:29:11.906Z,21.00
2022-11-19T22:31:40.076Z,23.10
2022-11-19T22:34:07.746Z,27.70
2022-11-19T22:36:35.192Z,27.20
2022-11-19T22:39:03.182Z,27.70
2022-11-19T22:41:31.548Z,34.30
2022-11-19T22:43:59.978Z,114.00
2022-11-19T22:46:28.195Z,34.30
2022-11-19T22:48:56.100Z,37.10
2022-11-19T22:51:26.155Z,59.60
2022-11-19T22:53:55.398Z,112.90
2022-11-19T22:56:25.449Z,197.00
2022-11-19T22:58:53.800Z,76.10
2022-11-19T23:01:27.508Z,66.40
2022-11-19T23:03:57.122Z,42.90
2022-11-19T23:06:25.463Z,63.30
2022-11-19T23:08:53.333Z,36.00
2022-11-19T23:11:42.197Z,57.80
2022-11-19T23:14:13.164Z,49.70
2022-11-19T23:16:41.478Z,34.10
2022-11-19T23:19:10.406Z,35.60
2022-11-19T23:21:38.949Z,34.10
2022-11-19T23:24:07.255Z,29.70
2022-11-19T23:26:38.414Z,132.60
2022-11-19T23:29:06.999Z,136.70
2022-11-19T23:31:37.776Z,51.20
2022-11-19T23:34:05.276Z,34.30
2022-11-19T23:36:36.502Z,27.00
2022-11-19T23:39:05.703Z,45.60
2022-11-19T23:41:34.771Z,49.20
2022-11-19T23:44:02.797Z,36.30
2022-11-19T23:46:32.983Z,48.80
2022-11-19T23:49:01.552Z,72.40
2022-11-19T23:51:32.909Z,63.40
2022-11-19T23:54:01.142Z,40.60
2022-11-19T23:56:31.767Z,73.40
2022-11-19T23:59:02.187Z,81.80
